Time;durP1;ratioP1;P1;durP2;ratioP2;P2;SDS_P1;SDS_P2;PMS_P1;PMS_P2;Temp;Humidity;BMP_temperature;BMP_pressure;BME280_temperature;BME280_humidity;BME280_pressure;Samples;Min_cycle;Max_cycle;Signal;HPM_P1;HPM_P2
2021/06/15 00:01:17;;;;;;;0.20;0.07;;;;;;;;;;5075649;28;20170;-64
2021/06/15 00:03:44;;;;;;;7.63;0.93;;;;;;;;;;5073253;28;20209;-65
2021/06/15 00:06:11;;;;;;;1.50;1.40;;;;;;;;;;5069307;28;20182;-62
2021/06/15 00:08:38;;;;;;;0.10;0.10;;;;;;;;;;5076980;28;20292;-63
2021/06/15 00:11:05;;;;;;;1.60;1.60;;;;;;;;;;5066508;28;20273;-61
2021/06/15 00:13:32;;;;;;;0.33;0.33;;;;;;;;;;5074529;28;20190;-61
2021/06/15 00:15:58;;;;;;;0.13;0.13;;;;;;;;;;5073539;28;20190;-62
2021/06/15 00:18:25;;;;;;;0.77;0.77;;;;;;;;;;5073552;28;20584;-63
2021/06/15 00:20:52;;;;;;;2.37;1.50;;;;;;;;;;5060971;28;20274;-62
2021/06/15 00:23:19;;;;;;;6.50;0.97;;;;;;;;;;5064692;28;20186;-64
2021/06/15 00:25:46;;;;;;;0.10;0.10;;;;;;;;;;5077924;28;20239;-64
2021/06/15 00:28:13;;;;;;;0.93;0.93;;;;;;;;;;5070568;28;20699;-62
2021/06/15 00:30:40;;;;;;;8.03;1.93;;;;;;;;;;5057866;28;20189;-63
2021/06/15 00:33:06;;;;;;;5.07;1.83;;;;;;;;;;5067755;28;20182;-62
2021/06/15 00:35:33;;;;;;;11.87;2.43;;;;;;;;;;5074852;28;20179;-66
2021/06/15 00:37:59;;;;;;;1.80;0.87;;;;;;;;;;5074855;28;20179;-64
2021/06/15 00:40:27;;;;;;;2.37;1.27;;;;;;;;;;5077111;28;20182;-63
2021/06/15 00:42:54;;;;;;;31.30;13.60;;;;;;;;;;5077838;28;20350;-62
2021/06/15 00:45:24;;;;;;;2.40;0.83;;;;;;;;;;5071145;28;20949;-63
2021/06/15 00:47:50;;;;;;;7.13;1.43;;;;;;;;;;5076055;28;20167;-64
2021/06/15 00:50:18;;;;;;;1.60;1.40;;;;;;;;;;5073631;28;20210;-64
2021/06/15 00:52:48;;;;;;;7.53;1.70;;;;;;;;;;5073541;28;20632;-63
2021/06/15 00:55:14;;;;;;;9.33;2.17;;;;;;;;;;5074803;28;20588;-64
2021/06/15 00:57:41;;;;;;;1.13;0.83;;;;;;;;;;5073899;28;20185;-63
2021/06/15 01:00:09;;;;;;;6.00;1.40;;;;;;;;;;5073668;28;20551;-64
2021/06/15 01:02:37;;;;;;;0.87;0.53;;;;;;;;;;5073902;28;20196;-64
2021/06/15 01:05:06;;;;;;;0.00;0.00;;;;;;;;;;5077228;28;20194;-64
2021/06/15 01:07:44;;;;;;;5.67;1.50;;;;;;;;;;5073294;28;20225;-64
2021/06/15 01:10:21;;;;;;;0.00;0.00;;;;;;;;;;5070994;28;20260;-63
2021/06/15 01:13:07;;;;;;;2.10;1.00;;;;;;;;;;5066834;28;20652;-63
2021/06/15 01:15:39;;;;;;;19.27;5.20;;;;;;;;;;5067054;28;20210;-61
2021/06/15 01:18:31;;;;;;;0.07;0.07;;;;;;;;;;5069132;28;20193;-63
2021/06/15 01:21:05;;;;;;;0.57;0.57;;;;;;;;;;5069446;28;20217;-63
2021/06/15 01:23:50;;;;;;;0.50;0.50;;;;;;;;;;5074573;28;20198;-63
2021/06/15 01:26:22;;;;;;;20.10;2.33;;;;;;;;;;5069996;28;20690;-63
2021/06/15 01:28:59;;;;;;;0.00;0.00;;;;;;;;;;5065404;28;20329;-63
2021/06/15 01:31:26;;;;;;;5.83;4.43;;;;;;;;;;5064830;28;20182;-63
2021/06/15 01:34:04;;;;;;;0.67;0.67;;;;;;;;;;5078934;28;20170;-63
2021/06/15 01:36:34;;;;;;;0.00;0.00;;;;;;;;;;5072564;28;20213;-63
2021/06/15 01:39:02;;;;;;;0.00;0.00;;;;;;;;;;5079108;28;20262;-63
2021/06/15 01:41:35;;;;;;;0.00;0.00;;;;;;;;;;5076759;28;20194;-62
2021/06/15 01:44:06;;;;;;;5.93;1.00;;;;;;;;;;5070987;28;20204;-63
2021/06/15 01:46:40;;;;;;;8.67;2.10;;;;;;;;;;5080382;28;20167;-63
2021/06/15 01:49:13;;;;;;;0.87;0.87;;;;;;;;;;5078181;28;20793;-63
2021/06/15 01:51:40;;;;;;;2.03;0.73;;;;;;;;;;5075233;28;20238;-63
2021/06/15 01:54:12;;;;;;;0.83;0.70;;;;;;;;;;5067901;28;20187;-63
2021/06/15 01:56:40;;;;;;;0.20;0.20;;;;;;;;;;5073752;28;20635;-63
2021/06/15 01:59:18;;;;;;;10.53;4.27;;;;;;;;;;5077419;28;20178;-63
2021/06/15 02:01:46;;;;;;;37.43;2.97;;;;;;;;;;5063026;28;20572;-63
2021/06/15 02:04:13;;;;;;;17.20;3.50;;;;;;;;;;5067233;28;20191;-63
2021/06/15 02:06:42;;;;;;;0.80;0.57;;;;;;;;;;5071032;28;20817;-64
2021/06/15 02:09:11;;;;;;;1.57;1.53;;;;;;;;;;5074238;28;20334;-63
2021/06/15 02:11:37;;;;;;;3.23;1.30;;;;;;;;;;5071662;28;20265;-63
2021/06/15 02:14:18;;;;;;;4.17;2.03;;;;;;;;;;5081424;28;20187;-63
2021/06/15 02:16:46;;;;;;;1.43;1.33;;;;;;;;;;5077774;28;20185;-63
2021/06/15 02:19:13;;;;;;;4.90;1.57;;;;;;;;;;5084718;28;20276;-63
2021/06/15 02:21:40;;;;;;;3.80;2.47;;;;;;;;;;5087625;28;20283;-63
2021/06/15 02:24:07;;;;;;;0.10;0.10;;;;;;;;;;5078092;28;20238;-63
2021/06/15 02:26:35;;;;;;;1.43;1.33;;;;;;;;;;5072933;28;20288;-63
2021/06/15 02:29:01;;;;;;;6.70;1.63;;;;;;;;;;5073217;28;20198;-63
2021/06/15 02:31:30;;;;;;;2.80;2.60;;;;;;;;;;5074159;28;20535;-63
2021/06/15 02:34:01;;;;;;;0.33;0.33;;;;;;;;;;5079451;28;20186;-63
2021/06/15 02:36:33;;;;;;;0.67;0.67;;;;;;;;;;5070330;28;20666;-63
2021/06/15 02:39:02;;;;;;;0.97;0.67;;;;;;;;;;5073407;28;20190;-63
2021/06/15 02:41:31;;;;;;;0.00;0.00;;;;;;;;;;5077350;28;20599;-63
2021/06/15 02:44:00;;;;;;;22.73;3.40;;;;;;;;;;5067956;28;20183;-63
2021/06/15 02:46:28;;;;;;;2.73;0.60;;;;;;;;;;5078035;28;20232;-63
2021/06/15 02:48:57;;;;;;;4.43;0.87;;;;;;;;;;5075781;28;20213;-63
2021/06/15 02:51:27;;;;;;;7.37;1.53;;;;;;;;;;5073513;28;20646;-63
2021/06/15 02:54:02;;;;;;;0.67;0.67;;;;;;;;;;5077970;28;20431;-62
2021/06/15 02:56:30;;;;;;;1.07;0.83;;;;;;;;;;5080759;28;20188;-63
2021/06/15 02:58:57;;;;;;;8.10;2.97;;;;;;;;;;5072633;28;20553;-63
2021/06/15 03:01:23;;;;;;;0.33;0.33;;;;;;;;;;5079027;28;20286;-63
2021/06/15 03:03:55;;;;;;;0.10;0.10;;;;;;;;;;5077230;28;20197;-63
2021/06/15 03:06:21;;;;;;;14.83;1.80;;;;;;;;;;5074297;28;21392;-63
2021/06/15 03:08:50;;;;;;;4.90;1.20;;;;;;;;;;5072447;28;20691;-63
2021/06/15 03:11:20;;;;;;;6.63;2.03;;;;;;;;;;5066186;28;20179;-62
2021/06/15 03:13:51;;;;;;;3.13;1.90;;;;;;;;;;5065443;28;20190;-63
2021/06/15 03:16:21;;;;;;;0.67;0.67;;;;;;;;;;5074858;28;20185;-63
2021/06/15 03:18:47;;;;;;;20.23;1.90;;;;;;;;;;5078998;28;20192;-63
2021/06/15 03:21:18;;;;;;;0.67;0.40;;;;;;;;;;5077656;28;20907;-62
2021/06/15 03:24:02;;;;;;;7.27;1.10;;;;;;;;;;5075705;28;20179;-64
2021/06/15 03:26:44;;;;;;;16.40;6.13;;;;;;;;;;5074175;28;20237;-63
2021/06/15 03:29:13;;;;;;;4.23;2.80;;;;;;;;;;5078789;28;20209;-62
2021/06/15 03:31:41;;;;;;;6.13;1.90;;;;;;;;;;5072528;28;20189;-62
2021/06/15 03:34:09;;;;;;;14.70;13.10;;;;;;;;;;5071738;28;20185;-62
2021/06/15 03:36:38;;;;;;;18.20;8.17;;;;;;;;;;5077267;28;20555;-64
2021/06/15 03:39:05;;;;;;;7.70;0.83;;;;;;;;;;5078948;28;20278;-63
2021/06/15 03:41:32;;;;;;;8.60;2.90;;;;;;;;;;5079971;28;20169;-63
2021/06/15 03:44:00;;;;;;;0.20;0.20;;;;;;;;;;5076017;28;20196;-63
2021/06/15 03:46:27;;;;;;;6.10;1.57;;;;;;;;;;5074838;28;20264;-63
2021/06/15 03:48:55;;;;;;;5.20;1.83;;;;;;;;;;5080080;28;20205;-63
2021/06/15 03:51:27;;;;;;;2.63;2.03;;;;;;;;;;5078689;28;20425;-63
2021/06/15 03:54:05;;;;;;;2.47;2.37;;;;;;;;;;5078417;28;21291;-63
2021/06/15 03:56:51;;;;;;;8.67;0.50;;;;;;;;;;5076708;28;20213;-63
2021/06/15 03:59:19;;;;;;;11.90;1.60;;;;;;;;;;5076986;28;20186;-63
2021/06/15 04:01:47;;;;;;;0.17;0.17;;;;;;;;;;5076803;28;20196;-63
2021/06/15 13:09:15;;;;;;;0.37;0.37;;;;;;;;;;5076346;28;20669;-58
2021/06/15 13:12:01;;;;;;;15.53;6.40;;;;;;;;;;5075564;28;20264;-58
2021/06/15 13:14:36;;;;;;;11.97;2.50;;;;;;;;;;5076749;28;20208;-59
2021/06/15 13:17:12;;;;;;;10.43;4.67;;;;;;;;;;5074650;28;20181;-59
2021/06/15 13:19:47;;;;;;;0.00;0.00;;;;;;;;;;5063380;28;20185;-59
2021/06/15 13:22:40;;;;;;;29.73;8.93;;;;;;;;;;5076877;28;20208;-59
2021/06/15 13:25:07;;;;;;;5.00;2.30;;;;;;;;;;5075221;28;20209;-59
2021/06/15 13:27:42;;;;;;;1.97;0.83;;;;;;;;;;5069859;28;20231;-58
2021/06/15 13:30:09;;;;;;;3.00;1.07;;;;;;;;;;5076060;28;20188;-59
2021/06/15 13:32:35;;;;;;;1.03;0.90;;;;;;;;;;5076115;28;20630;-58
2021/06/15 13:35:04;;;;;;;15.57;3.20;;;;;;;;;;5075385;28;20224;-59
2021/06/15 13:37:32;;;;;;;1.70;1.10;;;;;;;;;;5075659;28;20372;-59
2021/06/15 13:39:59;;;;;;;5.20;0.27;;;;;;;;;;5075597;28;20187;-59
2021/06/15 13:42:29;;;;;;;0.00;0.00;;;;;;;;;;5075456;28;20556;-59
2021/06/15 13:45:10;;;;;;;7.17;1.03;;;;;;;;;;5076177;28;20216;-59
2021/06/15 13:47:37;;;;;;;1.50;1.07;;;;;;;;;;5075405;28;20201;-59
2021/06/15 13:50:05;;;;;;;5.77;2.23;;;;;;;;;;5075527;28;20163;-59
2021/06/15 13:52:31;;;;;;;1.27;1.17;;;;;;;;;;5075496;28;20172;-59
2021/06/15 13:54:58;;;;;;;1.27;0.90;;;;;;;;;;5074062;28;20231;-59
2021/06/15 13:57:24;;;;;;;0.73;0.73;;;;;;;;;;5075259;28;20587;-59
2021/06/15 13:59:53;;;;;;;8.63;1.50;;;;;;;;;;5075183;28;20177;-59
2021/06/15 14:02:19;;;;;;;8.30;1.70;;;;;;;;;;5074359;28;20185;-59
2021/06/15 14:04:46;;;;;;;3.20;3.00;;;;;;;;;;5074349;28;20204;-59
2021/06/15 14:07:13;;;;;;;0.30;0.30;;;;;;;;;;5074559;28;20263;-59
2021/06/15 14:09:39;;;;;;;14.37;2.30;;;;;;;;;;5073520;28;20174;-59
2021/06/15 14:12:07;;;;;;;6.57;2.20;;;;;;;;;;5074352;28;20183;-58
2021/06/15 14:14:34;;;;;;;2.57;1.03;;;;;;;;;;5075224;28;20855;-59
2021/06/15 14:17:01;;;;;;;6.73;2.13;;;;;;;;;;5075458;28;20161;-59
2021/06/15 14:19:27;;;;;;;4.20;0.83;;;;;;;;;;5067255;28;20182;-59
2021/06/15 14:21:56;;;;;;;6.63;5.57;;;;;;;;;;5061456;28;20175;-59
2021/06/15 14:24:23;;;;;;;1.07;0.87;;;;;;;;;;5060315;28;20181;-59
2021/06/15 14:26:50;;;;;;;0.43;0.43;;;;;;;;;;5061547;28;20188;-60
2021/06/15 14:29:17;;;;;;;5.07;0.87;;;;;;;;;;5061017;28;20170;-59
2021/06/15 14:31:43;;;;;;;1.50;0.70;;;;;;;;;;5061039;28;20215;-59
2021/06/15 14:34:10;;;;;;;6.83;3.20;;;;;;;;;;5061512;28;20300;-59
2021/06/15 14:36:36;;;;;;;2.00;0.57;;;;;;;;;;5043007;28;20649;-58
2021/06/15 14:39:03;;;;;;;1.47;1.37;;;;;;;;;;5060750;28;20173;-59
2021/06/15 14:41:30;;;;;;;2.20;2.10;;;;;;;;;;5061356;28;20174;-59
2021/06/15 14:43:56;;;;;;;1.03;0.93;;;;;;;;;;5051632;28;20187;-59
2021/06/15 14:46:23;;;;;;;23.03;3.30;;;;;;;;;;5060659;28;20182;-58
2021/06/15 14:48:49;;;;;;;2.63;1.90;;;;;;;;;;5060306;28;20187;-59
2021/06/15 14:51:15;;;;;;;7.97;3.43;;;;;;;;;;5060298;28;20171;-58
2021/06/15 14:53:42;;;;;;;1.93;0.90;;;;;;;;;;5060642;28;20170;-58
2021/06/15 14:56:09;;;;;;;7.77;0.77;;;;;;;;;;5060629;28;20172;-59
2021/06/15 14:58:36;;;;;;;5.57;1.63;;;;;;;;;;5060783;28;20187;-58
2021/06/15 15:01:02;;;;;;;8.10;1.57;;;;;;;;;;5061354;28;20254;-59
2021/06/15 15:03:29;;;;;;;1.30;1.00;;;;;;;;;;5061062;28;20186;-58
2021/06/15 15:05:55;;;;;;;10.63;5.00;;;;;;;;;;5061076;28;20171;-59
2021/06/15 15:08:22;;;;;;;1.83;1.20;;;;;;;;;;5060505;28;20229;-61
2021/06/15 15:10:48;;;;;;;8.03;1.90;;;;;;;;;;5060510;28;20182;-59
2021/06/15 15:13:15;;;;;;;0.63;0.63;;;;;;;;;;5061093;28;20563;-59
2021/06/15 15:15:41;;;;;;;3.40;2.03;;;;;;;;;;5060254;28;20604;-59
2021/06/15 15:18:08;;;;;;;12.07;3.07;;;;;;;;;;5059509;28;20680;-59
2021/06/15 15:20:34;;;;;;;0.23;0.23;;;;;;;;;;5060718;28;20558;-59
2021/06/15 15:23:03;;;;;;;7.17;1.03;;;;;;;;;;5059586;28;20182;-59
2021/06/15 15:25:29;;;;;;;3.00;2.07;;;;;;;;;;5060133;28;20183;-59
2021/06/15 15:27:56;;;;;;;5.23;0.87;;;;;;;;;;5060675;28;20186;-59
2021/06/15 15:30:24;;;;;;;12.50;3.47;;;;;;;;;;5059182;28;20201;-59
2021/06/15 15:32:51;;;;;;;3.43;1.40;;;;;;;;;;5060298;28;20186;-59
2021/06/15 15:35:19;;;;;;;2.67;0.90;;;;;;;;;;5059582;28;20639;-59
2021/06/15 15:37:46;;;;;;;0.00;0.00;;;;;;;;;;5060392;28;20175;-59
2021/06/15 15:40:14;;;;;;;24.80;2.60;;;;;;;;;;5060352;28;20710;-59
2021/06/15 15:42:43;;;;;;;5.70;2.27;;;;;;;;;;5060062;28;20178;-60
2021/06/15 15:45:10;;;;;;;3.00;2.60;;;;;;;;;;5059846;28;20357;-59
2021/06/15 15:47:37;;;;;;;3.80;1.67;;;;;;;;;;5059873;28;20190;-59
2021/06/15 15:50:08;;;;;;;0.60;0.60;;;;;;;;;;5060049;28;20171;-59
2021/06/15 15:52:35;;;;;;;13.97;2.20;;;;;;;;;;5059169;28;20796;-59
2021/06/15 15:55:01;;;;;;;13.03;4.20;;;;;;;;;;5059770;28;20195;-59
2021/06/15 15:57:28;;;;;;;0.20;0.20;;;;;;;;;;5059630;28;20174;-59
2021/06/15 15:59:54;;;;;;;2.83;1.50;;;;;;;;;;5059691;28;20225;-59
2021/06/15 16:02:24;;;;;;;3.87;3.43;;;;;;;;;;5059826;28;20647;-60
2021/06/15 16:04:50;;;;;;;17.53;2.63;;;;;;;;;;5060073;28;20260;-59
2021/06/15 16:07:17;;;;;;;1.03;1.03;;;;;;;;;;5058920;28;20221;-59
2021/06/15 16:09:43;;;;;;;17.73;2.90;;;;;;;;;;5059137;28;20744;-59
2021/06/15 16:12:10;;;;;;;2.23;1.00;;;;;;;;;;5059407;28;20899;-58
2021/06/15 16:14:36;;;;;;;0.93;0.77;;;;;;;;;;5057962;28;20179;-59
2021/06/15 16:17:03;;;;;;;1.77;0.90;;;;;;;;;;5058967;28;20615;-59
2021/06/15 16:19:30;;;;;;;0.37;0.37;;;;;;;;;;5058860;28;20171;-59
2021/06/15 16:21:56;;;;;;;2.93;1.30;;;;;;;;;;5059280;28;20245;-59
2021/06/15 16:24:23;;;;;;;3.70;1.50;;;;;;;;;;5058897;28;20171;-59
2021/06/15 16:26:50;;;;;;;10.93;1.10;;;;;;;;;;5059454;28;20474;-61
2021/06/15 16:29:16;;;;;;;6.37;1.30;;;;;;;;;;5059332;28;20186;-59
2021/06/15 16:31:43;;;;;;;0.00;0.00;;;;;;;;;;5059208;28;20165;-58
2021/06/15 16:34:09;;;;;;;4.80;0.60;;;;;;;;;;5059005;28;20183;-59
2021/06/15 16:36:36;;;;;;;0.30;0.30;;;;;;;;;;5058932;28;20565;-58
2021/06/15 16:39:03;;;;;;;3.00;1.30;;;;;;;;;;5058937;28;20187;-59
2021/06/15 16:41:37;;;;;;;9.30;1.50;;;;;;;;;;5058961;28;20282;-59
2021/06/15 16:44:03;;;;;;;0.77;0.77;;;;;;;;;;5058446;28;20543;-58
2021/06/15 16:46:30;;;;;;;0.00;0.00;;;;;;;;;;5058906;28;20627;-58
2021/06/15 16:48:57;;;;;;;2.73;2.53;;;;;;;;;;5059050;28;20204;-58
2021/06/15 16:51:23;;;;;;;0.00;0.00;;;;;;;;;;5058509;28;20172;-58
2021/06/15 16:53:50;;;;;;;1.03;0.97;;;;;;;;;;5058691;28;20211;-58
2021/06/15 16:56:16;;;;;;;4.67;2.07;;;;;;;;;;5058784;28;20300;-58
2021/06/15 16:58:43;;;;;;;5.70;1.50;;;;;;;;;;5058749;28;20258;-59
2021/06/15 17:01:09;;;;;;;8.73;2.27;;;;;;;;;;5059204;28;20186;-58
2021/06/15 17:03:36;;;;;;;0.20;0.20;;;;;;;;;;5058126;28;20195;-58
2021/06/15 17:06:02;;;;;;;1.03;0.77;;;;;;;;;;5053903;28;20283;-58
2021/06/15 17:08:30;;;;;;;4.73;1.50;;;;;;;;;;5061891;28;20340;-59
2021/06/15 17:10:56;;;;;;;0.60;0.60;;;;;;;;;;5057330;28;20188;-59
2021/06/15 17:13:23;;;;;;;0.43;0.43;;;;;;;;;;5055491;28;20233;-59
2021/06/15 17:15:50;;;;;;;1.50;1.20;;;;;;;;;;5058523;28;20185;-59
2021/06/15 17:18:17;;;;;;;6.87;2.33;;;;;;;;;;5048173;28;20189;-59
2021/06/15 17:20:45;;;;;;;1.03;0.97;;;;;;;;;;5057330;28;20631;-59
2021/06/15 17:23:12;;;;;;;16.13;5.93;;;;;;;;;;5058286;28;20456;-59
2021/06/15 17:25:39;;;;;;;2.43;1.03;;;;;;;;;;5037298;28;20216;-59
2021/06/15 17:28:06;;;;;;;0.43;0.43;;;;;;;;;;5053989;28;20205;-59
2021/06/15 17:30:33;;;;;;;11.07;4.43;;;;;;;;;;5049493;28;20196;-59
2021/06/15 17:32:59;;;;;;;0.00;0.00;;;;;;;;;;5053577;28;20528;-59
2021/06/15 17:35:26;;;;;;;4.73;1.30;;;;;;;;;;5054464;28;20194;-59
2021/06/15 17:37:53;;;;;;;8.90;1.03;;;;;;;;;;5061122;28;20175;-59
2021/06/15 17:40:21;;;;;;;7.43;3.40;;;;;;;;;;5051992;28;20189;-59
2021/06/15 17:42:51;;;;;;;3.50;1.80;;;;;;;;;;5048113;28;20194;-59
2021/06/15 17:45:18;;;;;;;4.97;2.23;;;;;;;;;;5054182;28;20577;-59
2021/06/15 17:47:45;;;;;;;0.40;0.30;;;;;;;;;;5052906;28;20369;-59
2021/06/15 17:50:12;;;;;;;0.83;0.30;;;;;;;;;;5052145;28;20552;-59
2021/06/15 17:52:39;;;;;;;3.93;2.20;;;;;;;;;;5054048;28;20274;-60
2021/06/15 17:55:09;;;;;;;2.17;0.30;;;;;;;;;;5064340;28;20185;-59
2021/06/15 17:57:40;;;;;;;0.00;0.00;;;;;;;;;;5071824;28;20179;-60
2021/06/15 18:00:08;;;;;;;1.43;1.10;;;;;;;;;;5060637;28;20183;-60
2021/06/15 18:02:35;;;;;;;5.70;2.10;;;;;;;;;;5060479;28;20286;-59
2021/06/15 18:05:03;;;;;;;9.97;2.67;;;;;;;;;;5060934;28;20308;-60
2021/06/15 18:07:33;;;;;;;3.23;1.07;;;;;;;;;;5065472;28;20224;-60
2021/06/15 18:09:59;;;;;;;0.77;0.73;;;;;;;;;;5056124;28;20671;-59
2021/06/15 18:12:27;;;;;;;0.00;0.00;;;;;;;;;;5061263;28;20183;-59
2021/06/15 18:14:53;;;;;;;11.87;1.37;;;;;;;;;;5058184;28;20277;-59
2021/06/15 18:17:20;;;;;;;1.50;1.00;;;;;;;;;;5055735;28;20859;-59
2021/06/15 18:19:46;;;;;;;0.40;0.40;;;;;;;;;;5060056;28;20214;-59
2021/06/15 18:22:13;;;;;;;0.40;0.40;;;;;;;;;;5058716;28;20264;-59
2021/06/15 18:24:39;;;;;;;8.83;1.50;;;;;;;;;;5056162;28;20186;-59
2021/06/15 18:27:06;;;;;;;1.90;0.50;;;;;;;;;;5059175;28;20182;-59
2021/06/15 18:29:33;;;;;;;0.87;0.67;;;;;;;;;;5057270;28;20197;-58
2021/06/15 18:32:00;;;;;;;9.97;2.07;;;;;;;;;;5059864;28;20547;-59
2021/06/15 18:34:26;;;;;;;1.33;1.13;;;;;;;;;;5044701;28;20194;-59
2021/06/15 18:36:53;;;;;;;0.97;0.87;;;;;;;;;;5059434;28;20175;-59
2021/06/15 18:39:20;;;;;;;4.10;1.33;;;;;;;;;;5060878;28;20466;-59
2021/06/15 18:41:47;;;;;;;7.13;3.20;;;;;;;;;;5059943;28;20175;-59
2021/06/15 18:44:13;;;;;;;1.60;0.43;;;;;;;;;;5060035;28;20199;-59
2021/06/15 18:46:40;;;;;;;2.73;0.40;;;;;;;;;;5058345;28;20173;-58
2021/06/15 18:49:06;;;;;;;7.07;2.37;;;;;;;;;;5058683;28;20214;-59
2021/06/15 18:51:33;;;;;;;2.80;1.57;;;;;;;;;;5056044;28;20183;-59
2021/06/15 18:54:09;;;;;;;4.90;2.30;;;;;;;;;;5058919;28;20636;-58
2021/06/15 18:56:37;;;;;;;21.97;1.60;;;;;;;;;;5058481;28;20190;-59
2021/06/15 18:59:07;;;;;;;7.23;2.20;;;;;;;;;;5053410;28;20225;-58
2021/06/15 19:01:34;;;;;;;1.97;1.50;;;;;;;;;;5056764;28;20198;-59
2021/06/15 19:04:00;;;;;;;0.00;0.00;;;;;;;;;;5059850;28;20686;-59
2021/06/15 19:06:27;;;;;;;3.20;2.33;;;;;;;;;;5059726;28;20171;-59
2021/06/15 19:08:54;;;;;;;3.80;1.73;;;;;;;;;;5051268;28;20230;-59
2021/06/15 19:11:20;;;;;;;23.60;3.63;;;;;;;;;;5056530;28;20181;-59
2021/06/15 19:13:47;;;;;;;3.30;1.53;;;;;;;;;;5058806;28;20167;-59
2021/06/15 19:16:14;;;;;;;1.20;1.10;;;;;;;;;;5056477;28;20287;-59
2021/06/15 19:18:43;;;;;;;10.63;2.47;;;;;;;;;;5049033;28;20281;-59
2021/06/15 19:21:11;;;;;;;0.10;0.10;;;;;;;;;;5059591;28;20652;-59
2021/06/15 19:23:48;;;;;;;0.97;0.73;;;;;;;;;;5058738;28;20190;-59
2021/06/15 19:26:19;;;;;;;26.53;6.43;;;;;;;;;;5052816;28;20244;-59
2021/06/15 19:28:46;;;;;;;2.30;2.10;;;;;;;;;;5059120;28;20214;-59
2021/06/15 19:31:15;;;;;;;0.33;0.10;;;;;;;;;;5058545;28;20628;-59
2021/06/15 19:33:42;;;;;;;3.20;1.40;;;;;;;;;;5058538;28;20410;-59
2021/06/15 19:36:10;;;;;;;3.10;1.23;;;;;;;;;;5050436;28;20815;-59
2021/06/15 19:38:37;;;;;;;2.13;0.43;;;;;;;;;;5059134;28;20202;-59
2021/06/15 19:41:04;;;;;;;5.83;2.10;;;;;;;;;;5059246;28;20194;-59
2021/06/15 19:43:31;;;;;;;8.13;2.57;;;;;;;;;;5056597;28;21001;-58
2021/06/15 19:45:57;;;;;;;24.70;3.73;;;;;;;;;;5056615;28;20179;-59
2021/06/15 19:48:25;;;;;;;1.83;1.00;;;;;;;;;;5057412;28;20201;-59
2021/06/15 19:50:57;;;;;;;5.27;1.87;;;;;;;;;;5057013;28;20484;-60
2021/06/15 19:53:25;;;;;;;1.57;0.60;;;;;;;;;;5052425;28;20177;-65
2021/06/15 19:55:52;;;;;;;0.40;0.30;;;;;;;;;;5058307;28;20202;-65
2021/06/15 19:58:19;;;;;;;5.73;2.70;;;;;;;;;;5058535;28;20631;-65
2021/06/15 20:00:46;;;;;;;0.20;0.20;;;;;;;;;;5057272;28;20196;-65
2021/06/15 20:03:13;;;;;;;2.37;1.17;;;;;;;;;;5055121;28;20612;-65
2021/06/15 20:05:39;;;;;;;1.93;1.00;;;;;;;;;;5056587;28;20224;-65
2021/06/15 20:08:06;;;;;;;0.37;0.37;;;;;;;;;;5052049;28;21283;-66
2021/06/15 20:10:33;;;;;;;10.30;2.77;;;;;;;;;;5042536;28;20275;-65
2021/06/15 20:13:00;;;;;;;4.63;4.43;;;;;;;;;;5057898;28;20595;-65
2021/06/15 20:15:26;;;;;;;2.80;0.93;;;;;;;;;;5056888;28;20538;-66
2021/06/15 20:17:53;;;;;;;0.23;0.17;;;;;;;;;;5046039;28;20198;-66
2021/06/15 20:20:19;;;;;;;2.50;1.40;;;;;;;;;;5045929;28;20743;-66
2021/06/15 20:22:47;;;;;;;1.60;1.50;;;;;;;;;;5044963;28;20219;-66
2021/06/15 20:25:14;;;;;;;2.13;0.97;;;;;;;;;;5045276;28;20186;-65
2021/06/15 20:27:41;;;;;;;4.23;1.97;;;;;;;;;;5050066;28;20230;-65
2021/06/15 20:30:08;;;;;;;3.17;1.50;;;;;;;;;;5055510;28;20290;-66
2021/06/15 20:32:35;;;;;;;9.50;1.30;;;;;;;;;;5056019;28;20778;-66
2021/06/15 20:35:01;;;;;;;1.67;1.57;;;;;;;;;;5057752;28;20669;-66
2021/06/15 20:37:28;;;;;;;5.43;2.33;;;;;;;;;;5057543;28;20171;-66
2021/06/15 20:39:54;;;;;;;12.57;2.33;;;;;;;;;;5056302;28;20218;-66
2021/06/15 20:42:21;;;;;;;8.47;3.20;;;;;;;;;;5056333;28;20525;-66
2021/06/15 20:44:47;;;;;;;0.80;0.40;;;;;;;;;;5057387;28;20255;-66
2021/06/15 20:47:14;;;;;;;17.83;3.23;;;;;;;;;;5056825;28;20176;-66
2021/06/15 20:49:40;;;;;;;2.67;1.53;;;;;;;;;;5057860;28;20600;-66
2021/06/15 20:52:07;;;;;;;12.17;2.07;;;;;;;;;;5057607;28;20171;-65
2021/06/15 20:54:34;;;;;;;8.50;0.63;;;;;;;;;;5057657;28;20461;-66
2021/06/15 20:57:02;;;;;;;12.27;2.13;;;;;;;;;;5057851;28;20171;-67
2021/06/15 20:59:28;;;;;;;0.43;0.33;;;;;;;;;;5057264;28;20627;-66
2021/06/15 21:01:55;;;;;;;3.10;1.80;;;;;;;;;;5054405;28;20475;-67
2021/06/15 21:04:21;;;;;;;19.07;5.87;;;;;;;;;;5057683;28;20170;-67
2021/06/15 21:06:48;;;;;;;10.30;0.97;;;;;;;;;;5057739;28;20163;-65
2021/06/15 21:09:14;;;;;;;0.00;0.00;;;;;;;;;;5057740;28;20671;-65
2021/06/15 21:11:41;;;;;;;5.77;1.00;;;;;;;;;;5058030;28;20168;-66
2021/06/15 21:14:07;;;;;;;1.57;0.53;;;;;;;;;;5057904;28;20225;-66
2021/06/15 21:16:35;;;;;;;13.40;3.40;;;;;;;;;;5057000;28;20181;-65
2021/06/15 21:19:02;;;;;;;5.50;1.73;;;;;;;;;;5056951;28;20268;-66
2021/06/15 21:21:29;;;;;;;24.63;2.47;;;;;;;;;;5057589;28;20167;-65
2021/06/15 21:23:56;;;;;;;0.77;0.50;;;;;;;;;;5057632;28;20171;-66
2021/06/15 21:26:22;;;;;;;15.63;2.37;;;;;;;;;;5057637;28;20282;-66
2021/06/15 21:28:51;;;;;;;9.17;2.07;;;;;;;;;;5057707;28;20202;-65
2021/06/15 21:31:18;;;;;;;3.77;1.47;;;;;;;;;;5061494;28;20633;-65
2021/06/15 21:33:44;;;;;;;2.53;2.33;;;;;;;;;;5060541;28;20184;-65
2021/06/15 21:36:11;;;;;;;1.70;0.23;;;;;;;;;;5061126;28;20265;-65
2021/06/15 21:38:37;;;;;;;6.70;1.60;;;;;;;;;;5060667;28;20672;-66
2021/06/15 21:41:04;;;;;;;0.97;0.87;;;;;;;;;;5061043;28;20241;-66
2021/06/15 21:43:31;;;;;;;1.43;1.07;;;;;;;;;;5061445;28;20727;-65
2021/06/15 21:45:57;;;;;;;3.70;2.43;;;;;;;;;;5061264;28;20567;-65
2021/06/15 21:48:24;;;;;;;10.00;1.50;;;;;;;;;;5060904;28;20216;-65
2021/06/15 21:50:50;;;;;;;4.53;2.00;;;;;;;;;;5060565;28;20839;-65
2021/06/15 21:53:18;;;;;;;0.10;0.10;;;;;;;;;;5061092;28;20171;-66
2021/06/15 21:55:44;;;;;;;0.47;0.13;;;;;;;;;;5060794;28;20205;-65
2021/06/15 21:58:11;;;;;;;0.00;0.00;;;;;;;;;;5060694;28;20183;-65
2021/06/15 22:00:39;;;;;;;1.57;0.63;;;;;;;;;;5060897;28;20178;-66
2021/06/15 22:03:06;;;;;;;1.23;1.13;;;;;;;;;;5060412;28;20179;-66
2021/06/15 22:05:34;;;;;;;0.50;0.50;;;;;;;;;;5060259;28;20546;-65
2021/06/15 22:08:01;;;;;;;0.40;0.40;;;;;;;;;;5060090;28;20694;-66
2021/06/15 22:10:28;;;;;;;1.77;0.97;;;;;;;;;;5060366;28;20160;-66
2021/06/15 22:12:54;;;;;;;0.00;0.00;;;;;;;;;;5060199;28;20167;-66
2021/06/15 22:15:21;;;;;;;1.80;0.33;;;;;;;;;;5041959;28;20205;-66
2021/06/15 22:17:48;;;;;;;1.10;1.03;;;;;;;;;;5059471;28;20241;-66
2021/06/15 22:20:19;;;;;;;6.37;2.00;;;;;;;;;;5059549;28;20258;-67
2021/06/15 22:22:46;;;;;;;0.00;0.00;;;;;;;;;;5060238;28;20185;-64
2021/06/15 22:25:12;;;;;;;0.43;0.43;;;;;;;;;;5059826;28;20301;-65
2021/06/15 22:27:39;;;;;;;1.30;1.00;;;;;;;;;;5059842;28;20567;-66
2021/06/15 22:30:07;;;;;;;0.00;0.00;;;;;;;;;;5059921;28;20179;-65
2021/06/15 22:32:34;;;;;;;4.00;2.47;;;;;;;;;;5060125;28;20177;-67
2021/06/15 22:35:00;;;;;;;6.53;1.43;;;;;;;;;;5060051;28;20462;-65
2021/06/15 22:37:27;;;;;;;0.00;0.00;;;;;;;;;;5060232;28;20267;-65
2021/06/15 22:39:53;;;;;;;0.33;0.30;;;;;;;;;;5059393;28;20543;-65
2021/06/15 22:42:20;;;;;;;1.73;1.30;;;;;;;;;;5057718;28;20175;-65
2021/06/15 22:44:46;;;;;;;1.53;0.73;;;;;;;;;;5058699;28;20171;-65
2021/06/15 22:47:13;;;;;;;0.00;0.00;;;;;;;;;;5059464;28;20171;-65
2021/06/15 22:49:39;;;;;;;3.67;1.37;;;;;;;;;;5059714;28;20648;-65
2021/06/15 22:52:06;;;;;;;3.80;1.43;;;;;;;;;;5059535;28;20581;-65
2021/06/15 22:54:33;;;;;;;0.43;0.43;;;;;;;;;;5059451;28;20160;-65
2021/06/15 22:56:59;;;;;;;1.40;1.40;;;;;;;;;;5059999;28;20163;-65
2021/06/15 22:59:25;;;;;;;0.00;0.00;;;;;;;;;;5040814;28;20195;-65
2021/06/15 23:01:52;;;;;;;3.20;2.40;;;;;;;;;;5058379;28;20179;-65
2021/06/15 23:04:18;;;;;;;2.20;1.60;;;;;;;;;;5059600;28;20175;-67
2021/06/15 23:06:45;;;;;;;4.20;1.73;;;;;;;;;;5059371;28;20554;-64
2021/06/15 23:09:11;;;;;;;0.30;0.30;;;;;;;;;;5059055;28;20203;-64
2021/06/15 23:11:38;;;;;;;3.50;0.57;;;;;;;;;;5059699;28;20159;-64
2021/06/15 23:14:05;;;;;;;1.40;1.23;;;;;;;;;;5059393;28;20175;-64
2021/06/15 23:16:33;;;;;;;3.00;1.50;;;;;;;;;;5059723;28;20179;-65
2021/06/15 23:18:59;;;;;;;12.23;1.17;;;;;;;;;;5056540;28;20542;-64
2021/06/15 23:21:26;;;;;;;4.80;1.33;;;;;;;;;;5058847;28;20746;-63
2021/06/15 23:23:54;;;;;;;12.43;1.23;;;;;;;;;;5058951;28;20187;-63
2021/06/15 23:26:21;;;;;;;0.63;0.57;;;;;;;;;;5058850;28;20196;-64
2021/06/15 23:28:55;;;;;;;0.40;0.10;;;;;;;;;;5058147;28;20210;-62
2021/06/15 23:31:21;;;;;;;0.03;0.03;;;;;;;;;;5051986;28;20198;-64
2021/06/15 23:33:48;;;;;;;0.33;0.33;;;;;;;;;;5054311;28;20179;-64
2021/06/15 23:36:15;;;;;;;9.73;1.10;;;;;;;;;;5045091;28;20222;-64
2021/06/15 23:38:41;;;;;;;9.50;2.97;;;;;;;;;;5046521;28;20257;-64
2021/06/15 23:41:08;;;;;;;0.27;0.23;;;;;;;;;;5044058;28;20198;-64
2021/06/15 23:43:36;;;;;;;1.03;1.03;;;;;;;;;;5042926;28;20408;-64
2021/06/15 23:46:02;;;;;;;4.90;1.80;;;;;;;;;;5049683;28;20260;-64
2021/06/15 23:48:30;;;;;;;1.07;0.13;;;;;;;;;;5047161;28;20207;-64
2021/06/15 23:50:57;;;;;;;0.10;0.10;;;;;;;;;;5048363;28;20378;-64